Luke AFB, Arizona
Current Conditions -  °F | °C
As of 2:58 AM on Tuesday 21 Oct 2014 (Local Time) from KLUF Reporting Station
Clear Clear  
Wind Chill: 64°   Ceiling: Unl
Heat Index: 64°   Visibility: 10mi
Dew Point: 52°   Wind: 8mph
Humidity: 64%   Direction: 330°NNW
Pressure: 29.85"   Gusts: NA
Location:  33.53°N, 112.37°W
Report Text: KLUF 210958Z AUTO 33007KT 10SM CLR 18/11 A2985 RMK AO2 SLP098 T01800110 $
Loading
Personal Weather Stations






























Interactive Weather Map
Tropical Storm Tracking
New forecast layout! Learn more

10-Day Weather Forecast

Advertisements
Track Severe Weather on mobile